NVIDIA Pre-Tax Profit Margin 2006-2021 | NVDA

Current and historical pre-tax profit margin for NVIDIA (NVDA) from 2006 to 2021. Pre-tax profit margin can be defined as earnings before taxes as a portion of total revenue. NVIDIA pre-tax profit margin for the three months ending January 31, 2021 was .
NVIDIA Pre-Tax Profit Margin Historical Data
Date TTM Revenue TTM Pre-Tax Income Pre-Tax Margin
2021-01-31 $16.68B $4.41B 26.44%
2020-10-31 $14.78B $3.95B 26.76%
2020-07-31 $13.07B $3.57B 27.29%
2020-04-30 $11.78B $3.56B 30.24%
2020-01-31 $10.92B $2.97B 27.20%
2019-10-31 $10.02B $2.28B 22.74%
2019-07-31 $10.19B $2.40B 23.56%
2019-04-30 $10.73B $2.97B 27.72%
2019-01-31 $11.72B $3.90B 33.25%
2018-10-31 $12.42B $4.65B 37.45%
2018-07-31 $11.88B $4.47B 37.61%
2018-04-30 $10.98B $3.97B 36.15%
2018-01-31 $9.71B $3.20B 32.90%
2017-10-31 $8.98B $2.84B 31.66%
2017-07-31 $8.34B $2.57B 30.76%
2017-04-30 $7.54B $2.20B 29.17%
2017-01-31 $6.91B $1.91B 27.57%
2016-10-31 $6.14B $1.43B 23.35%
2016-07-31 $5.44B $1.06B 19.43%
2016-04-30 $5.16B $0.81B 15.72%
2016-01-31 $5.01B $0.74B 14.83%
2015-10-31 $4.86B $0.72B 14.75%
2015-07-31 $4.78B $0.68B 14.25%
2015-04-30 $4.73B $0.76B 16.15%
2015-01-31 $4.68B $0.76B 16.13%
2014-10-31 $4.58B $0.70B 15.21%
2014-07-31 $4.40B $0.63B 14.26%
2014-04-30 $4.28B $0.59B 13.67%
2014-01-31 $4.13B $0.51B 12.35%
2013-10-31 $4.09B $0.53B 12.88%
2013-07-31 $4.24B $0.64B 15.08%
2013-04-30 $4.31B $0.67B 15.61%
2013-01-31 $4.28B $0.66B 15.47%
2012-10-31 $4.13B $0.60B 14.57%
2012-07-31 $3.99B $0.55B 13.84%
2012-04-30 $3.96B $0.59B 14.77%
2012-01-31 $4.00B $0.66B 16.61%
2011-10-31 $3.93B $0.73B 18.44%
2011-07-31 $3.71B $0.62B 16.82%
2011-04-30 $3.50B $0.28B 7.91%
2011-01-31 $3.54B $0.27B 7.68%
2010-10-31 $3.64B $0.23B 6.18%
2010-07-31 $3.70B $0.23B 6.25%
2010-04-30 $3.66B $0.29B 8.00%
2010-01-31 $3.33B $-0.08B -2.50%
2009-10-31 $2.83B $-0.39B -13.88%
2009-07-31 $2.82B $-0.44B -15.64%
2009-04-30 $2.94B $-0.48B -16.38%
2009-01-31 $3.43B $-0.04B -1.26%
2008-10-31 $4.15B $0.41B 9.81%
2008-07-31 $4.37B $0.61B 14.04%
2008-04-30 $4.41B $0.96B 21.81%
2008-01-31 $4.10B $0.90B 22.01%
2007-10-31 $3.77B $0.77B 20.51%
2007-07-31 $3.48B $0.64B 18.25%
2007-04-30 $3.23B $0.54B 16.68%
2007-01-31 $3.07B $0.50B 16.12%
2006-10-31 $2.83B $0.46B 16.32%
2006-07-31 $2.59B $0.41B 15.81%
2006-04-30 $2.47B $0.39B 15.64%
2006-01-31 $2.38B $0.36B 15.07%
2005-10-31 $2.31B $0.28B 12.22%
Sector Industry Market Cap Revenue
Computer and Technology Semiconductor - General $396.147B $16.675B
NVIDIA Corporation is the worldwide leader in graphics processors and media communications devices. The NVIDIA? Tesla? accelerated computing platform gives modern data centers the power to accelerate both artificial intelligence and high-performance computing workloads. NVIDIA? DGX? Systems are built on the new, revolutionary NVIDIA Volta? GPU platform. Powered by NVIDIA? Tesla? GPUs and NVIDIA NVLink?, the HGX reference architecture standardizes the design of data centers accelerating AI in the cloud-from autonomous driving and personalized healthcare to superhuman voice recognition. NVIDIA GPU Cloud (NGC) is a GPU-accelerated platform that runs everywhere. Data scientists and researchers can now rapidly build, train, and deploy neural network models to address some of the most complicated AI challenges. Their researchers operate as a think tank, accelerating advances in product technologies, including AI innovations like facial animations and light transport.
Stock Name Country Market Cap PE Ratio
Intel (INTC) United States $263.684B 12.19
Texas Instruments (TXN) United States $176.621B 32.15
STMicroelectronics (STM) Switzerland $35.520B 32.22
SUMCO CORP ADR (SUOPY) Japan $7.316B 30.83
Thk (THKLY) Japan $4.814B 0.00
Amtech Systems (ASYS) United States $0.156B 0.00